sensor_id;sensor_type;location;lat;lon;timestamp;pressure;altitude;pressure_sealevel;temperature;humidity
10466;BME280;5280;42.600;23.556;2024-02-23T00:01:33;93128.94;;;6.27;100.00
10466;BME280;5280;42.600;23.556;2024-02-23T00:04:00;93119.47;;;6.24;100.00
10466;BME280;5280;42.600;23.556;2024-02-23T00:06:28;93142.38;;;6.35;100.00
10466;BME280;5280;42.600;23.556;2024-02-23T00:08:55;93144.69;;;6.39;100.00
10466;BME280;5280;42.600;23.556;2024-02-23T00:11:25;93140.59;;;6.48;100.00
10466;BME280;5280;42.600;23.556;2024-02-23T00:13:53;93122.66;;;6.55;100.00
10466;BME280;5280;42.600;23.556;2024-02-23T00:16:20;93103.53;;;6.53;100.00
10466;BME280;5280;42.600;23.556;2024-02-23T00:18:47;93062.38;;;6.28;100.00
10466;BME280;5280;42.600;23.556;2024-02-23T00:21:14;93125.19;;;6.69;100.00
10466;BME280;5280;42.600;23.556;2024-02-23T00:23:41;93127.50;;;6.73;100.00
10466;BME280;5280;42.600;23.556;2024-02-23T00:26:08;93119.44;;;6.76;100.00
10466;BME280;5280;42.600;23.556;2024-02-23T00:28:37;93102.94;;;6.62;100.00
10466;BME280;5280;42.600;23.556;2024-02-23T00:31:04;93100.53;;;6.71;100.00
10466;BME280;5280;42.600;23.556;2024-02-23T00:33:31;93112.13;;;6.92;100.00
10466;BME280;5280;42.600;23.556;2024-02-23T00:35:59;93054.63;;;6.64;100.00
10466;BME280;5280;42.600;23.556;2024-02-23T00:38:26;93111.63;;;7.00;100.00
10466;BME280;5280;42.600;23.556;2024-02-23T00:40:53;93111.25;;;7.17;100.00
10466;BME280;5280;42.600;23.556;2024-02-23T00:43:20;93093.84;;;7.04;100.00
10466;BME280;5280;42.600;23.556;2024-02-23T00:45:48;93116.09;;;7.23;100.00
10466;BME280;5280;42.600;23.556;2024-02-23T00:48:15;93103.38;;;7.30;100.00
10466;BME280;5280;42.600;23.556;2024-02-23T00:50:43;93086.25;;;7.24;100.00
10466;BME280;5280;42.600;23.556;2024-02-23T00:53:10;93032.06;;;6.98;100.00
10466;BME280;5280;42.600;23.556;2024-02-23T00:55:37;93080.56;;;7.30;100.00
10466;BME280;5280;42.600;23.556;2024-02-23T00:58:04;93101.44;;;7.45;100.00
10466;BME280;5280;42.600;23.556;2024-02-23T01:00:32;93104.28;;;7.42;100.00
10466;BME280;5280;42.600;23.556;2024-02-23T01:03:01;93104.84;;;7.58;100.00
10466;BME280;5280;42.600;23.556;2024-02-23T01:05:28;93085.75;;;7.43;100.00
10466;BME280;5280;42.600;23.556;2024-02-23T01:07:55;93060.13;;;7.34;100.00
10466;BME280;5280;42.600;23.556;2024-02-23T01:10:22;93091.53;;;7.48;100.00
10466;BME280;5280;42.600;23.556;2024-02-23T01:12:49;93097.53;;;7.38;100.00
10466;BME280;5280;42.600;23.556;2024-02-23T01:15:16;93034.38;;;7.03;100.00
10466;BME280;5280;42.600;23.556;2024-02-23T01:17:43;93092.38;;;7.49;100.00
10466;BME280;5280;42.600;23.556;2024-02-23T01:20:12;93085.06;;;7.28;100.00
10466;BME280;5280;42.600;23.556;2024-02-23T01:22:39;93056.78;;;7.32;100.00
10466;BME280;5280;42.600;23.556;2024-02-23T01:25:06;93091.00;;;7.43;100.00
10466;BME280;5280;42.600;23.556;2024-02-23T01:27:33;93081.16;;;7.34;100.00
10466;BME280;5280;42.600;23.556;2024-02-23T01:30:00;93067.94;;;7.23;100.00
10466;BME280;5280;42.600;23.556;2024-02-23T01:32:27;93062.34;;;7.27;100.00
10466;BME280;5280;42.600;23.556;2024-02-23T01:34:54;93059.63;;;7.29;100.00
10466;BME280;5280;42.600;23.556;2024-02-23T01:37:23;93084.72;;;7.46;100.00
10466;BME280;5280;42.600;23.556;2024-02-23T01:39:50;93037.47;;;7.20;100.00
10466;BME280;5280;42.600;23.556;2024-02-23T01:42:16;93078.28;;;7.50;100.00
10466;BME280;5280;42.600;23.556;2024-02-23T01:44:44;93059.94;;;7.37;100.00
10466;BME280;5280;42.600;23.556;2024-02-23T01:47:11;93075.91;;;7.34;100.00
10466;BME280;5280;42.600;23.556;2024-02-23T01:49:38;93063.09;;;7.29;100.00
10466;BME280;5280;42.600;23.556;2024-02-23T01:52:05;93073.53;;;7.18;100.00
10466;BME280;5280;42.600;23.556;2024-02-23T01:54:34;93072.34;;;7.22;100.00
10466;BME280;5280;42.600;23.556;2024-02-23T01:57:01;93071.09;;;7.28;100.00
10466;BME280;5280;42.600;23.556;2024-02-23T01:59:30;92986.78;;;6.71;100.00
10466;BME280;5280;42.600;23.556;2024-02-23T02:01:58;93027.88;;;6.96;100.00
10466;BME280;5280;42.600;23.556;2024-02-23T02:04:25;93066.59;;;7.17;100.00
10466;BME280;5280;42.600;23.556;2024-02-23T02:06:52;93052.03;;;7.01;100.00
10466;BME280;5280;42.600;23.556;2024-02-23T02:09:19;93043.41;;;6.99;100.00
10466;BME280;5280;42.600;23.556;2024-02-23T02:11:48;93044.25;;;6.99;100.00
10466;BME280;5280;42.600;23.556;2024-02-23T02:14:15;93046.94;;;6.86;100.00
10466;BME280;5280;42.600;23.556;2024-02-23T02:16:43;92989.44;;;6.45;100.00
10466;BME280;5280;42.600;23.556;2024-02-23T02:19:10;93044.50;;;6.83;100.00
10466;BME280;5280;42.600;23.556;2024-02-23T02:21:37;93002.09;;;6.64;100.00
10466;BME280;5280;42.600;23.556;2024-02-23T02:24:06;93026.06;;;6.72;100.00
10466;BME280;5280;42.600;23.556;2024-02-23T02:26:35;93046.19;;;6.97;100.00
10466;BME280;5280;42.600;23.556;2024-02-23T02:29:04;93034.00;;;6.83;100.00
10466;BME280;5280;42.600;23.556;2024-02-23T02:31:31;93044.59;;;6.95;100.00
10466;BME280;5280;42.600;23.556;2024-02-23T02:34:03;93059.16;;;7.11;100.00
10466;BME280;5280;42.600;23.556;2024-02-23T02:36:30;93057.88;;;7.17;100.00
10466;BME280;5280;42.600;23.556;2024-02-23T02:38:57;93046.34;;;7.07;100.00
10466;BME280;5280;42.600;23.556;2024-02-23T02:41:28;93047.47;;;7.15;100.00
10466;BME280;5280;42.600;23.556;2024-02-23T02:43:55;93036.78;;;7.06;100.00
10466;BME280;5280;42.600;23.556;2024-02-23T02:46:24;93010.44;;;6.95;100.00
10466;BME280;5280;42.600;23.556;2024-02-23T02:48:51;93030.78;;;7.16;100.00
10466;BME280;5280;42.600;23.556;2024-02-23T02:51:18;93041.63;;;7.12;100.00
10466;BME280;5280;42.600;23.556;2024-02-23T02:53:45;93033.25;;;7.18;100.00
10466;BME280;5280;42.600;23.556;2024-02-23T02:56:12;93014.94;;;7.05;100.00
10466;BME280;5280;42.600;23.556;2024-02-23T02:58:39;93021.75;;;7.08;100.00
10466;BME280;5280;42.600;23.556;2024-02-23T03:01:06;93041.66;;;7.23;100.00
10466;BME280;5280;42.600;23.556;2024-02-23T03:03:34;93037.47;;;7.20;100.00
10466;BME280;5280;42.600;23.556;2024-02-23T03:06:02;93019.63;;;7.13;100.00
10466;BME280;5280;42.600;23.556;2024-02-23T03:08:29;93042.31;;;7.26;100.00
10466;BME280;5280;42.600;23.556;2024-02-23T03:10:56;93033.34;;;7.29;100.00
10466;BME280;5280;42.600;23.556;2024-02-23T03:13:23;93032.91;;;7.35;100.00
10466;BME280;5280;42.600;23.556;2024-02-23T03:15:50;93036.13;;;7.39;100.00
10466;BME280;5280;42.600;23.556;2024-02-23T03:18:17;93032.34;;;7.43;100.00
10466;BME280;5280;42.600;23.556;2024-02-23T03:20:46;93037.38;;;7.46;100.00
10466;BME280;5280;42.600;23.556;2024-02-23T03:23:13;93040.69;;;7.60;99.76
10466;BME280;5280;42.600;23.556;2024-02-23T03:25:40;93024.31;;;7.57;100.00
10466;BME280;5280;42.600;23.556;2024-02-23T03:28:07;93040.41;;;7.76;100.00
10466;BME280;5280;42.600;23.556;2024-02-23T03:30:34;93044.13;;;7.85;100.00
10466;BME280;5280;42.600;23.556;2024-02-23T03:33:01;93060.25;;;7.80;100.00
10466;BME280;5280;42.600;23.556;2024-02-23T03:35:28;92978.38;;;7.50;100.00
10466;BME280;5280;42.600;23.556;2024-02-23T03:37:56;93053.38;;;7.90;98.97
10466;BME280;5280;42.600;23.556;2024-02-23T03:40:23;93050.16;;;7.98;99.80
10466;BME280;5280;42.600;23.556;2024-02-23T03:42:50;93053.56;;;7.87;100.00
10466;BME280;5280;42.600;23.556;2024-02-23T03:45:17;93018.22;;;7.67;100.00
10466;BME280;5280;42.600;23.556;2024-02-23T03:47:44;93071.28;;;7.85;100.00
10466;BME280;5280;42.600;23.556;2024-02-23T03:50:11;93062.84;;;7.69;100.00
10466;BME280;5280;42.600;23.556;2024-02-23T03:52:38;93061.13;;;7.57;100.00
10466;BME280;5280;42.600;23.556;2024-02-23T03:55:07;93059.44;;;7.32;100.00
10466;BME280;5280;42.600;23.556;2024-02-23T03:57:34;93045.19;;;7.11;100.00
10466;BME280;5280;42.600;23.556;2024-02-23T04:00:02;93066.63;;;7.05;100.00
10466;BME280;5280;42.600;23.556;2024-02-23T04:02:29;93064.66;;;6.96;100.00
10466;BME280;5280;42.600;23.556;2024-02-23T04:04:56;93065.84;;;6.91;100.00
10466;BME280;5280;42.600;23.556;2024-02-23T04:07:23;93066.34;;;6.84;100.00
10466;BME280;5280;42.600;23.556;2024-02-23T04:09:50;93050.09;;;6.66;100.00
10466;BME280;5280;42.600;23.556;2024-02-23T04:12:19;93066.16;;;6.74;100.00
10466;BME280;5280;42.600;23.556;2024-02-23T04:14:46;93043.06;;;6.67;100.00
10466;BME280;5280;42.600;23.556;2024-02-23T04:17:13;93068.06;;;6.60;100.00
10466;BME280;5280;42.600;23.556;2024-02-23T04:19:41;93055.06;;;6.45;100.00
10466;BME280;5280;42.600;23.556;2024-02-23T04:22:08;93029.13;;;6.28;100.00
10466;BME280;5280;42.600;23.556;2024-02-23T04:24:38;92987.88;;;6.18;100.00
10466;BME280;5280;42.600;23.556;2024-02-23T04:27:05;93060.28;;;6.71;100.00
10466;BME280;5280;42.600;23.556;2024-02-23T04:29:34;93059.75;;;6.78;100.00
10466;BME280;5280;42.600;23.556;2024-02-23T04:32:02;93058.41;;;6.60;100.00
10466;BME280;5280;42.600;23.556;2024-02-23T04:34:29;93062.59;;;6.75;100.00
10466;BME280;5280;42.600;23.556;2024-02-23T04:36:56;93067.19;;;6.84;100.00
10466;BME280;5280;42.600;23.556;2024-02-23T04:39:23;93067.75;;;6.77;100.00
10466;BME280;5280;42.600;23.556;2024-02-23T04:41:50;93064.69;;;6.70;100.00
10466;BME280;5280;42.600;23.556;2024-02-23T04:44:17;93059.69;;;6.42;100.00
10466;BME280;5280;42.600;23.556;2024-02-23T04:46:45;93040.03;;;6.35;100.00
10466;BME280;5280;42.600;23.556;2024-02-23T04:49:12;93086.88;;;6.66;100.00
10466;BME280;5280;42.600;23.556;2024-02-23T04:51:40;93078.88;;;6.68;100.00
10466;BME280;5280;42.600;23.556;2024-02-23T04:54:07;93078.06;;;6.67;100.00
10466;BME280;5280;42.600;23.556;2024-02-23T04:56:34;93057.47;;;6.61;100.00
10466;BME280;5280;42.600;23.556;2024-02-23T04:59:01;93078.56;;;6.72;100.00
10466;BME280;5280;42.600;23.556;2024-02-23T05:01:28;92999.44;;;6.15;100.00
10466;BME280;5280;42.600;23.556;2024-02-23T05:03:57;93016.72;;;6.18;100.00
10466;BME280;5280;42.600;23.556;2024-02-23T05:06:24;93073.31;;;6.47;100.00
10466;BME280;5280;42.600;23.556;2024-02-23T05:08:51;93095.47;;;6.56;100.00
10466;BME280;5280;42.600;23.556;2024-02-23T05:11:18;93085.06;;;6.54;100.00
10466;BME280;5280;42.600;23.556;2024-02-23T05:13:44;93086.13;;;6.52;100.00
10466;BME280;5280;42.600;23.556;2024-02-23T05:16:14;93014.66;;;5.83;100.00
10466;BME280;5280;42.600;23.556;2024-02-23T05:18:43;93095.47;;;6.43;100.00
10466;BME280;5280;42.600;23.556;2024-02-23T05:21:14;93077.59;;;6.23;100.00
10466;BME280;5280;42.600;23.556;2024-02-23T05:23:41;93073.94;;;6.13;100.00
10466;BME280;5280;42.600;23.556;2024-02-23T05:26:08;93099.75;;;6.19;100.00
10466;BME280;5280;42.600;23.556;2024-02-23T05:28:36;93105.66;;;6.22;100.00
10466;BME280;5280;42.600;23.556;2024-02-23T05:31:03;93099.56;;;6.22;100.00
10466;BME280;5280;42.600;23.556;2024-02-23T05:33:30;93103.19;;;6.19;100.00
10466;BME280;5280;42.600;23.556;2024-02-23T05:35:57;93105.75;;;6.21;100.00
10466;BME280;5280;42.600;23.556;2024-02-23T05:38:25;93070.31;;;5.88;100.00
10466;BME280;5280;42.600;23.556;2024-02-23T05:40:53;93110.19;;;5.93;100.00
10466;BME280;5280;42.600;23.556;2024-02-23T05:43:19;93106.84;;;5.91;100.00
10466;BME280;5280;42.600;23.556;2024-02-23T05:45:46;93032.66;;;5.50;100.00
10466;BME280;5280;42.600;23.556;2024-02-23T05:48:13;93045.03;;;5.48;100.00
10466;BME280;5280;42.600;23.556;2024-02-23T05:50:40;93118.03;;;5.93;100.00
10466;BME280;5280;42.600;23.556;2024-02-23T05:53:07;93105.41;;;5.86;100.00
10466;BME280;5280;42.600;23.556;2024-02-23T05:55:35;93112.66;;;5.82;100.00
10466;BME280;5280;42.600;23.556;2024-02-23T05:58:03;93120.03;;;5.90;100.00
10466;BME280;5280;42.600;23.556;2024-02-23T06:00:30;93114.31;;;5.83;100.00
10466;BME280;5280;42.600;23.556;2024-02-23T06:02:57;93123.19;;;5.68;100.00
10466;BME280;5280;42.600;23.556;2024-02-23T06:05:24;93130.63;;;5.88;100.00
10466;BME280;5280;42.600;23.556;2024-02-23T06:07:51;93130.34;;;5.79;100.00
10466;BME280;5280;42.600;23.556;2024-02-23T06:10:20;93132.84;;;5.94;100.00
10466;BME280;5280;42.600;23.556;2024-02-23T06:12:48;93116.41;;;5.78;100.00
10466;BME280;5280;42.600;23.556;2024-02-23T06:15:15;93137.91;;;5.97;100.00
10466;BME280;5280;42.600;23.556;2024-02-23T06:17:42;93139.47;;;6.00;100.00
10466;BME280;5280;42.600;23.556;2024-02-23T06:20:10;93134.53;;;5.95;100.00
10466;BME280;5280;42.600;23.556;2024-02-23T06:22:38;93151.44;;;6.04;100.00
10466;BME280;5280;42.600;23.556;2024-02-23T06:25:05;93111.16;;;5.78;100.00
10466;BME280;5280;42.600;23.556;2024-02-23T06:27:32;93107.75;;;5.63;100.00
10466;BME280;5280;42.600;23.556;2024-02-23T06:30:01;93133.38;;;5.73;100.00
10466;BME280;5280;42.600;23.556;2024-02-23T06:32:28;93150.28;;;5.95;100.00
10466;BME280;5280;42.600;23.556;2024-02-23T06:34:54;93144.72;;;6.00;100.00
10466;BME280;5280;42.600;23.556;2024-02-23T06:37:21;93147.44;;;5.98;100.00
10466;BME280;5280;42.600;23.556;2024-02-23T06:39:48;93150.66;;;5.89;100.00
10466;BME280;5280;42.600;23.556;2024-02-23T06:42:20;93145.66;;;5.99;100.00
10466;BME280;5280;42.600;23.556;2024-02-23T06:44:47;93094.88;;;5.73;100.00
10466;BME280;5280;42.600;23.556;2024-02-23T06:47:15;93122.25;;;5.96;100.00
10466;BME280;5280;42.600;23.556;2024-02-23T06:49:42;93151.34;;;6.05;100.00
10466;BME280;5280;42.600;23.556;2024-02-23T06:52:09;93152.19;;;6.06;100.00
10466;BME280;5280;42.600;23.556;2024-02-23T06:54:36;93144.63;;;6.01;100.00
10466;BME280;5280;42.600;23.556;2024-02-23T06:57:04;93158.00;;;6.24;100.00
10466;BME280;5280;42.600;23.556;2024-02-23T06:59:31;93152.22;;;6.19;100.00
10466;BME280;5280;42.600;23.556;2024-02-23T07:01:58;93101.19;;;5.97;100.00
10466;BME280;5280;42.600;23.556;2024-02-23T07:04:26;93135.44;;;6.34;100.00
10466;BME280;5280;42.600;23.556;2024-02-23T07:06:55;93141.44;;;6.48;100.00
10466;BME280;5280;42.600;23.556;2024-02-23T07:09:22;93120.56;;;6.47;100.00
10466;BME280;5280;42.600;23.556;2024-02-23T07:11:48;93135.91;;;6.78;100.00
10466;BME280;5280;42.600;23.556;2024-02-23T07:14:15;93145.56;;;6.90;100.00
10466;BME280;5280;42.600;23.556;2024-02-23T07:16:43;93143.06;;;7.02;100.00
10466;BME280;5280;42.600;23.556;2024-02-23T07:19:10;93074.03;;;6.74;100.00
10466;BME280;5280;42.600;23.556;2024-02-23T07:21:39;93137.44;;;7.31;100.00
10466;BME280;5280;42.600;23.556;2024-02-23T07:24:07;93127.53;;;7.22;100.00
10466;BME280;5280;42.600;23.556;2024-02-23T07:26:34;93060.63;;;7.03;100.00
10466;BME280;5280;42.600;23.556;2024-02-23T07:29:01;93130.81;;;7.62;100.00
10466;BME280;5280;42.600;23.556;2024-02-23T07:31:28;93117.28;;;7.56;100.00
10466;BME280;5280;42.600;23.556;2024-02-23T07:33:55;93129.50;;;7.81;100.00
10466;BME280;5280;42.600;23.556;2024-02-23T07:36:22;93120.69;;;7.93;100.00
10466;BME280;5280;42.600;23.556;2024-02-23T07:38:51;93127.13;;;8.12;100.00
10466;BME280;5280;42.600;23.556;2024-02-23T07:41:20;93121.75;;;8.14;100.00
10466;BME280;5280;42.600;23.556;2024-02-23T07:43:47;93130.41;;;8.27;100.00
10466;BME280;5280;42.600;23.556;2024-02-23T07:46:14;93129.63;;;8.38;100.00
10466;BME280;5280;42.600;23.556;2024-02-23T07:48:42;93141.44;;;8.56;100.00
10466;BME280;5280;42.600;23.556;2024-02-23T07:51:09;93122.16;;;8.55;100.00
10466;BME280;5280;42.600;23.556;2024-02-23T07:53:37;93079.25;;;8.31;100.00
10466;BME280;5280;42.600;23.556;2024-02-23T07:56:07;93132.16;;;8.85;100.00
10466;BME280;5280;42.600;23.556;2024-02-23T07:58:34;93133.97;;;8.96;100.00
10466;BME280;5280;42.600;23.556;2024-02-23T08:01:01;93099.09;;;8.81;100.00
10466;BME280;5280;42.600;23.556;2024-02-23T08:03:30;93138.28;;;9.08;100.00
10466;BME280;5280;42.600;23.556;2024-02-23T08:05:57;93135.78;;;9.18;100.00
10466;BME280;5280;42.600;23.556;2024-02-23T08:08:24;93135.06;;;9.38;100.00
10466;BME280;5280;42.600;23.556;2024-02-23T08:10:52;93136.00;;;9.48;100.00
10466;BME280;5280;42.600;23.556;2024-02-23T08:13:20;93121.75;;;9.39;100.00
10466;BME280;5280;42.600;23.556;2024-02-23T08:15:47;93117.06;;;9.54;100.00
10466;BME280;5280;42.600;23.556;2024-02-23T08:18:14;93134.88;;;9.84;100.00
10466;BME280;5280;42.600;23.556;2024-02-23T08:20:41;93134.88;;;9.95;100.00
10466;BME280;5280;42.600;23.556;2024-02-23T08:23:09;93127.03;;;10.05;100.00
10466;BME280;5280;42.600;23.556;2024-02-23T08:25:36;93119.81;;;10.18;100.00
10466;BME280;5280;42.600;23.556;2024-02-23T08:28:04;93137.16;;;10.31;100.00
10466;BME280;5280;42.600;23.556;2024-02-23T08:30:33;93134.47;;;10.43;100.00
10466;BME280;5280;42.600;23.556;2024-02-23T08:33:00;93125.16;;;10.59;100.00
10466;BME280;5280;42.600;23.556;2024-02-23T08:35:27;93114.66;;;10.69;100.00
10466;BME280;5280;42.600;23.556;2024-02-23T08:37:54;93127.88;;;10.90;100.00
10466;BME280;5280;42.600;23.556;2024-02-23T08:40:21;93129.91;;;11.07;100.00
10466;BME280;5280;42.600;23.556;2024-02-23T08:42:48;93108.69;;;11.18;99.40
10466;BME280;5280;42.600;23.556;2024-02-23T08:45:19;93128.69;;;11.41;99.84
10466;BME280;5280;42.600;23.556;2024-02-23T08:47:47;93107.03;;;11.57;100.00
10466;BME280;5280;42.600;23.556;2024-02-23T08:50:14;93118.00;;;11.73;98.57
10466;BME280;5280;42.600;23.556;2024-02-23T08:52:41;93136.03;;;11.98;98.55
10466;BME280;5280;42.600;23.556;2024-02-23T08:55:08;93107.88;;;11.97;97.78
10466;BME280;5280;42.600;23.556;2024-02-23T08:57:37;93120.03;;;12.19;98.20
10466;BME280;5280;42.600;23.556;2024-02-23T09:00:06;93124.09;;;12.33;97.90
10466;BME280;5280;42.600;23.556;2024-02-23T09:02:33;93134.00;;;12.40;95.47
10466;BME280;5280;42.600;23.556;2024-02-23T09:05:05;93088.94;;;12.21;96.98
10466;BME280;5280;42.600;23.556;2024-02-23T09:07:33;93126.22;;;12.48;96.77
10466;BME280;5280;42.600;23.556;2024-02-23T09:09:59;93144.47;;;12.61;95.56
10466;BME280;5280;42.600;23.556;2024-02-23T09:12:26;93127.47;;;12.54;93.04
10466;BME280;5280;42.600;23.556;2024-02-23T09:14:53;93132.34;;;12.68;96.14
10466;BME280;5280;42.600;23.556;2024-02-23T09:17:21;93134.28;;;12.66;95.91
10466;BME280;5280;42.600;23.556;2024-02-23T09:19:48;93137.09;;;12.74;97.47
10466;BME280;5280;42.600;23.556;2024-02-23T09:22:17;93122.00;;;12.84;97.30
10466;BME280;5280;42.600;23.556;2024-02-23T09:24:44;93133.72;;;12.82;98.27
10466;BME280;5280;42.600;23.556;2024-02-23T09:27:12;93114.47;;;12.80;98.36
10466;BME280;5280;42.600;23.556;2024-02-23T09:29:40;93127.53;;;13.10;99.89
10466;BME280;5280;42.600;23.556;2024-02-23T09:32:07;93112.88;;;13.06;100.00
10466;BME280;5280;42.600;23.556;2024-02-23T09:34:34;93122.84;;;13.14;100.00
10466;BME280;5280;42.600;23.556;2024-02-23T09:37:01;93129.78;;;13.24;100.00
10466;BME280;5280;42.600;23.556;2024-02-23T09:39:30;93119.72;;;13.09;99.63
10466;BME280;5280;42.600;23.556;2024-02-23T09:41:59;93137.03;;;13.32;99.42
10466;BME280;5280;42.600;23.556;2024-02-23T09:44:32;93133.38;;;13.43;100.00
10466;BME280;5280;42.600;23.556;2024-02-23T09:47:00;93136.97;;;13.51;100.00
10466;BME280;5280;42.600;23.556;2024-02-23T09:49:34;93130.00;;;13.77;100.00
10466;BME280;5280;42.600;23.556;2024-02-23T09:52:03;93134.69;;;13.93;100.00
10466;BME280;5280;42.600;23.556;2024-02-23T09:54:32;93118.84;;;14.01;99.54
10466;BME280;5280;42.600;23.556;2024-02-23T09:57:00;93077.81;;;13.86;100.00
10466;BME280;5280;42.600;23.556;2024-02-23T09:59:30;93072.63;;;14.12;100.00
10466;BME280;5280;42.600;23.556;2024-02-23T10:01:59;93094.28;;;14.44;100.00
10466;BME280;5280;42.600;23.556;2024-02-23T10:04:27;93096.84;;;14.36;100.00
10466;BME280;5280;42.600;23.556;2024-02-23T10:06:55;93104.84;;;14.54;100.00
10466;BME280;5280;42.600;23.556;2024-02-23T10:09:23;93091.91;;;14.59;100.00
10466;BME280;5280;42.600;23.556;2024-02-23T10:11:53;93089.19;;;14.69;100.00
10466;BME280;5280;42.600;23.556;2024-02-23T10:14:20;93081.25;;;14.77;100.00
10466;BME280;5280;42.600;23.556;2024-02-23T10:16:47;93092.31;;;14.90;100.00
10466;BME280;5280;42.600;23.556;2024-02-23T10:19:19;93040.66;;;14.75;100.00
10466;BME280;5280;42.600;23.556;2024-02-23T10:21:46;93082.78;;;15.05;100.00
10466;BME280;5280;42.600;23.556;2024-02-23T10:24:13;93062.66;;;15.02;100.00
10466;BME280;5280;42.600;23.556;2024-02-23T10:26:42;93086.88;;;15.17;100.00
10466;BME280;5280;42.600;23.556;2024-02-23T10:29:12;93086.28;;;15.05;100.00
10466;BME280;5280;42.600;23.556;2024-02-23T10:31:40;93097.91;;;15.04;100.00
10466;BME280;5280;42.600;23.556;2024-02-23T10:34:09;93092.03;;;14.93;100.00
10466;BME280;5280;42.600;23.556;2024-02-23T10:36:40;93064.59;;;14.75;100.00
10466;BME280;5280;42.600;23.556;2024-02-23T10:39:08;93082.59;;;14.81;100.00
10466;BME280;5280;42.600;23.556;2024-02-23T10:41:36;93053.84;;;14.58;100.00
10466;BME280;5280;42.600;23.556;2024-02-23T10:44:04;93072.53;;;14.67;100.00
10466;BME280;5280;42.600;23.556;2024-02-23T10:46:33;93074.63;;;14.81;100.00
10466;BME280;5280;42.600;23.556;2024-02-23T10:49:01;93041.25;;;14.86;100.00
10466;BME280;5280;42.600;23.556;2024-02-23T10:51:31;93059.78;;;14.96;100.00
10466;BME280;5280;42.600;23.556;2024-02-23T10:54:00;93060.66;;;15.04;100.00
10466;BME280;5280;42.600;23.556;2024-02-23T10:56:29;92986.00;;;14.54;100.00
10466;BME280;5280;42.600;23.556;2024-02-23T10:58:57;93053.88;;;15.10;100.00
10466;BME280;5280;42.600;23.556;2024-02-23T11:01:25;93066.94;;;15.21;100.00
10466;BME280;5280;42.600;23.556;2024-02-23T11:03:54;93036.28;;;15.09;100.00
10466;BME280;5280;42.600;23.556;2024-02-23T11:06:27;93051.28;;;15.18;100.00
10466;BME280;5280;42.600;23.556;2024-02-23T11:09:05;93040.84;;;15.25;100.00
10466;BME280;5280;42.600;23.556;2024-02-23T11:11:32;92969.44;;;14.94;100.00
10466;BME280;5280;42.600;23.556;2024-02-23T11:14:02;93040.09;;;15.40;100.00
10466;BME280;5280;42.600;23.556;2024-02-23T11:16:31;93050.38;;;15.35;100.00
10466;BME280;5280;42.600;23.556;2024-02-23T11:19:09;93032.78;;;15.42;100.00
10466;BME280;5280;42.600;23.556;2024-02-23T11:21:37;93050.44;;;15.43;100.00
10466;BME280;5280;42.600;23.556;2024-02-23T11:24:05;93033.41;;;15.36;100.00
10466;BME280;5280;42.600;23.556;2024-02-23T11:26:32;93032.44;;;15.37;100.00
10466;BME280;5280;42.600;23.556;2024-02-23T11:29:09;93025.47;;;15.44;100.00
10466;BME280;5280;42.600;23.556;2024-02-23T11:31:44;93016.72;;;15.52;100.00
10466;BME280;5280;42.600;23.556;2024-02-23T11:34:12;92999.50;;;15.46;100.00
10466;BME280;5280;42.600;23.556;2024-02-23T11:36:39;93011.06;;;15.55;100.00
10466;BME280;5280;42.600;23.556;2024-02-23T11:39:10;93023.78;;;15.69;100.00
10466;BME280;5280;42.600;23.556;2024-02-23T11:41:38;92966.41;;;15.49;100.00
10466;BME280;5280;42.600;23.556;2024-02-23T11:44:06;93016.22;;;15.99;100.00
10466;BME280;5280;42.600;23.556;2024-02-23T11:46:33;92998.34;;;15.83;100.00
10466;BME280;5280;42.600;23.556;2024-02-23T11:49:00;92999.19;;;15.83;100.00
10466;BME280;5280;42.600;23.556;2024-02-23T11:51:29;93006.72;;;16.04;100.00
10466;BME280;5280;42.600;23.556;2024-02-23T11:53:57;93005.91;;;16.12;100.00
10466;BME280;5280;42.600;23.556;2024-02-23T11:56:26;93001.63;;;16.19;100.00
10466;BME280;5280;42.600;23.556;2024-02-23T11:58:53;93004.75;;;16.06;100.00
10466;BME280;5280;42.600;23.556;2024-02-23T12:01:21;92999.41;;;16.14;100.00
10466;BME280;5280;42.600;23.556;2024-02-23T12:03:47;92996.09;;;16.20;100.00
10466;BME280;5280;42.600;23.556;2024-02-23T12:06:15;92992.78;;;16.26;100.00
10466;BME280;5280;42.600;23.556;2024-02-23T12:08:44;92984.28;;;16.23;100.00
10466;BME280;5280;42.600;23.556;2024-02-23T12:11:12;92978.09;;;16.06;100.00
10466;BME280;5280;42.600;23.556;2024-02-23T12:13:39;93001.38;;;16.04;100.00
10466;BME280;5280;42.600;23.556;2024-02-23T12:16:08;92993.22;;;15.98;100.00
10466;BME280;5280;42.600;23.556;2024-02-23T12:18:35;92988.34;;;15.77;100.00
10466;BME280;5280;42.600;23.556;2024-02-23T12:21:04;93003.84;;;15.81;100.00
10466;BME280;5280;42.600;23.556;2024-02-23T12:23:39;92968.31;;;15.65;100.00
10466;BME280;5280;42.600;23.556;2024-02-23T12:26:08;92943.69;;;15.63;100.00
10466;BME280;5280;42.600;23.556;2024-02-23T12:28:35;92988.00;;;15.80;100.00
10466;BME280;5280;42.600;23.556;2024-02-23T12:31:03;92985.97;;;15.66;100.00
10466;BME280;5280;42.600;23.556;2024-02-23T12:33:32;92983.94;;;15.60;100.00
10466;BME280;5280;42.600;23.556;2024-02-23T12:36:00;92991.94;;;15.60;100.00
10466;BME280;5280;42.600;23.556;2024-02-23T12:38:28;92992.34;;;15.39;100.00
10466;BME280;5280;42.600;23.556;2024-02-23T12:40:55;92978.50;;;15.35;100.00
10466;BME280;5280;42.600;23.556;2024-02-23T12:43:25;92975.81;;;15.27;100.00
10466;BME280;5280;42.600;23.556;2024-02-23T12:45:52;92981.34;;;15.34;100.00
10466;BME280;5280;42.600;23.556;2024-02-23T12:48:20;92967.13;;;15.25;100.00
10466;BME280;5280;42.600;23.556;2024-02-23T12:50:48;92967.25;;;15.16;100.00
10466;BME280;5280;42.600;23.556;2024-02-23T12:53:31;92915.72;;;14.91;100.00
10466;BME280;5280;42.600;23.556;2024-02-23T12:56:00;92952.81;;;15.26;100.00
10466;BME280;5280;42.600;23.556;2024-02-23T12:58:29;92898.50;;;15.03;100.00
10466;BME280;5280;42.600;23.556;2024-02-23T13:00:56;92945.88;;;15.33;100.00